»·PEaware :: N9875 KALW-KCLM

N9875 :: KALW-KCLM

FLIGHT INFORMATION

Flight Status: Arrived
Operator: Privately registered:
United States
More flights under this callsign
Pilot: Alex K. (14822)
Aircraft: PILATUS PC-12 EAGLE
(PC12)
More flights by this aircraft type
Origin: KALW Walla Walla Regl
United States
Destination: KCLM Fairchild Intl
United States
More flights between these airports :: More routes between these airports
Route: LYLES V520 PSC V204 YKM V4 JAWBN
File this flight plan on PilotEdge
Remarks: GO FIGHTING SIOUX
Altitude:
(Current/Filed)
10,000ft
Speed:
(Current/Filed)
280kts
Departed: 01-May-17 03:05 PM
Arrived: 01-May-17 04:25 PM
Distance/Time
Traveled:
245nm/1:20
Distance/Time
To Go:
Arrived

Flight Plot

Page will automatically refresh every two minutes.

Flight plan parsing failed; only flown route is shown


Map Options




Map Legend


Flown Route
Filed Route
Departure Airport
Arrival Airport
Navaid (VOR, NDB)
Fix

Horizontal Profiles

Position Reports

Time Latitude Longitude Heading Altitude Ground
Speed
01-May-17 14:56 46.089572 -118.283826 29 1180ft 0kts
01-May-17 14:57 46.089572 -118.283826 29 1180ft 0kts
01-May-17 14:58 46.089572 -118.283826 29 1180ft 0kts
01-May-17 14:59 46.089572 -118.283826 29 1180ft 0kts
01-May-17 15:00 46.089572 -118.283826 29 1180ft 0kts
01-May-17 15:01 46.089572 -118.283826 29 1180ft 0kts
01-May-17 15:02 46.090402 -118.283561 41 1181ft 10kts
01-May-17 15:03 46.094010 -118.279846 34 1190ft 19kts
01-May-17 15:04 46.098272 -118.276064 1 1197ft 0kts
01-May-17 15:05 46.098608 -118.276041 351 1197ft 13kts
01-May-17 15:06 46.098980 -118.281797 107 1180ft 12kts
01-May-17 15:07 46.099107 -118.280588 267 1183ft 75kts
01-May-17 15:08 46.101203 -118.329333 279 2210ft 145kts
01-May-17 15:09 46.111278 -118.385081 282 3949ft 147kts
01-May-17 15:10 46.122824 -118.442280 286 5635ft 151kts
01-May-17 15:11 46.135144 -118.500418 286 7225ft 154kts
01-May-17 15:12 46.147715 -118.559993 287 8774ft 158kts
01-May-17 15:13 46.160687 -118.621749 287 9944ft 178kts
01-May-17 15:14 46.177211 -118.695165 287 9956ft 220kts
01-May-17 15:15 46.196482 -118.781254 287 9955ft 233kts
01-May-17 15:16 46.216134 -118.870235 287 9931ft 237kts
01-May-17 15:17 46.236060 -118.960996 287 9927ft 237kts
01-May-17 15:18 46.255791 -119.051232 287 9926ft 237kts
01-May-17 15:19 46.275649 -119.141170 288 9930ft 237kts
01-May-17 15:20 46.295956 -119.230230 288 9927ft 237kts
01-May-17 15:21 46.315106 -119.314760 288 9979ft 236kts
01-May-17 15:22 46.335075 -119.402829 288 9982ft 237kts
01-May-17 15:23 46.354286 -119.488415 288 9981ft 237kts
01-May-17 15:24 46.374540 -119.578707 288 9981ft 237kts
01-May-17 15:25 46.394421 -119.667676 287 9981ft 237kts
01-May-17 15:26 46.413938 -119.754148 287 9980ft 237kts
01-May-17 15:27 46.432876 -119.839398 287 9953ft 239kts
01-May-17 15:28 46.452452 -119.925429 288 9928ft 238kts
01-May-17 15:29 46.471497 -120.008639 288 9927ft 238kts
01-May-17 15:30 46.490341 -120.091281 288 9929ft 238kts
01-May-17 15:31 46.509003 -120.173538 288 9928ft 237kts
01-May-17 15:32 46.527711 -120.256260 288 9931ft 237kts
01-May-17 15:33 46.546427 -120.339334 288 9923ft 237kts
01-May-17 15:34 46.564695 -120.420770 287 9925ft 237kts
01-May-17 15:35 46.592453 -120.491595 304 9928ft 238kts
01-May-17 15:36 46.624789 -120.559187 304 9928ft 237kts
01-May-17 15:37 46.657495 -120.627766 304 9926ft 238kts
01-May-17 15:38 46.686634 -120.688621 304 9929ft 238kts
01-May-17 15:39 46.714788 -120.747526 303 9930ft 238kts
01-May-17 15:40 46.743768 -120.808662 303 9928ft 238kts
01-May-17 15:41 46.774331 -120.873360 303 9929ft 238kts
01-May-17 15:42 46.805967 -120.940506 303 9932ft 238kts
01-May-17 15:43 46.838376 -121.009424 303 9953ft 237kts
01-May-17 15:44 46.870923 -121.078783 303 9954ft 238kts
01-May-17 15:45 46.903136 -121.147642 303 9954ft 238kts
01-May-17 15:46 46.936281 -121.218682 303 9946ft 238kts
01-May-17 15:47 46.967755 -121.286460 304 9928ft 243kts
01-May-17 15:48 47.002965 -121.362151 305 9927ft 245kts
01-May-17 15:49 47.038640 -121.439109 304 9927ft 246kts
01-May-17 15:50 47.072762 -121.512982 304 9873ft 247kts
01-May-17 15:51 47.106632 -121.586638 305 9875ft 245kts
01-May-17 15:52 47.148279 -121.646106 317 9872ft 239kts
01-May-17 15:53 47.191232 -121.702843 317 9872ft 239kts
01-May-17 15:54 47.235729 -121.761699 316 9873ft 238kts
01-May-17 15:55 47.282575 -121.824123 316 9898ft 235kts
01-May-17 15:56 47.318590 -121.872259 316 9966ft 232kts
01-May-17 15:57 47.353782 -121.919337 316 9980ft 230kts
01-May-17 15:58 47.388928 -121.966445 316 9981ft 230kts
01-May-17 15:59 47.427717 -122.018535 316 9981ft 230kts
01-May-17 16:00 47.460500 -122.062642 316 9981ft 230kts
01-May-17 16:01 47.492947 -122.106372 316 9981ft 230kts
01-May-17 16:02 47.526402 -122.151541 316 9981ft 230kts
01-May-17 16:03 47.560896 -122.198240 316 9980ft 230kts
01-May-17 16:04 47.594048 -122.243100 316 9980ft 230kts
01-May-17 16:05 47.628733 -122.290208 316 9980ft 230kts
01-May-17 16:06 47.665255 -122.339889 316 9980ft 230kts
01-May-17 16:07 47.701361 -122.389099 316 9980ft 230kts
01-May-17 16:08 47.739527 -122.441223 316 9980ft 230kts
01-May-17 16:09 47.777385 -122.493164 316 9980ft 230kts
01-May-17 16:10 47.814957 -122.544780 316 10006ft 229kts
01-May-17 16:11 47.851996 -122.595653 316 10007ft 229kts
01-May-17 16:12 47.885189 -122.641318 316 9985ft 230kts
01-May-17 16:13 47.923936 -122.694269 315 9982ft 230kts
01-May-17 16:14 47.963700 -122.748944 315 9981ft 230kts
01-May-17 16:15 48.007807 -122.810030 315 9026ft 245kts
01-May-17 16:16 48.039271 -122.887341 284 7554ft 237kts
01-May-17 16:17 48.054361 -122.974956 283 6047ft 222kts
01-May-17 16:18 48.067744 -123.053520 283 4505ft 192kts
01-May-17 16:19 48.079504 -123.123007 283 3725ft 179kts
01-May-17 16:20 48.083335 -123.195842 272 3020ft 164kts
01-May-17 16:21 48.085233 -123.255473 272 2982ft 138kts
01-May-17 16:22 48.087139 -123.313283 272 2981ft 139kts
01-May-17 16:23 48.095087 -123.363062 284 2298ft 106kts
01-May-17 16:24 48.102262 -123.404687 284 1713ft 106kts
01-May-17 16:25 48.109820 -123.447033 284 1022ft 104kts
01-May-17 16:26 48.117201 -123.489659 285 355ft 105kts
01-May-17 16:27 48.119037 -123.506457 106 271ft 12kts
01-May-17 16:28 48.117829 -123.499628 104 267ft 20kts
01-May-17 16:29 48.116262 -123.498595 132 270ft 0kts
01-May-17 16:30 48.116262 -123.498595 132 270ft 0kts
01-May-17 16:31 48.116262 -123.498595 132 270ft 0kts
01-May-17 16:32 48.116262 -123.498595 132 270ft 0kts
01-May-17 16:33 48.116262 -123.498595 132 270ft 0kts
01-May-17 16:34 48.116262 -123.498595 132 270ft 0kts

Navigation Log

Ident Type
Flight plan parsing failed, navigation log unavailable